Etusivu
METAR-TAF:

METAR-TAF

Lentoasemat :

Camagüey, Kuuba

Leveyspiiri: 21-25N, Pituuspiiri: 077-51W, korkeus merenpinnasta: 122 m

Tämänhetkinen sää

Tämä raportti tehtiin 1 tunti ja 8 minuuttia sitten, kello 07.50 UTC
Tuuli 6 kn koillisesta
Lämpötila 23°C
Kosteus 94%
Ilmanpaine 1017 hPa
Näkyvyys: 9000 m
selkeää

METAR: MUCM 260750Z 04006KT 9000 SKC 23/22 Q1017

Aika: 04:58 (08:58 UTC)

Sääennuste

Tämä raportti tehtiin 3 tuntia ja 58 minuuttia sitten, kello 05.00 UTC
Ennuste voimassa 26. päivästä klo 06 UTC - 27. päivään klo 06 UTC
Tuuli 3 kn eri suunnista
Näkyvyys: 9000 m
Muutamia pilviä 2000 ft:n korkeudessa
Tulossa
26. päivästä klo 15 UTC - 26. päivään klo 17 UTC
Tuuli 10 kn idästä/koillisesta

TAF: MUCM 260500Z 2606/2706 VRB03KT 9000 FEW020 BECMG 2615/2617 07010KT

Säähavainnot ja -ennusteet yli 4000 lentoasemalta (METAR- ja TAF-raportit).

Käytössä olevat sääasemat on merkitty karttaan keltaisilla ja punaisilla pisteillä.

Aseta hiiri pisteen päälle nähdäksesi sääaseman nimen.

Klikkaa sitten nähdäksesi säähavainnot ja -ennusteet.

Kartan vaihtaminen: klikkaa mustalla rastilla varustettuja vihreitä pisteitä, niin voit zoomata sisään; viivalla varustettua vihreää pistettä, niin voit zoomata ulos tai vihreitä nuolia, niin pääset viereisille kartoille.


METAR-TAF: